Weather at Hartsfield Jackson Atlanta International Airport

Public forecast

Using degrees Fahrenheit for public forecast. Weather courtesy of forecast.io.

Current aviation weather report (METAR) for Hartsfield Jackson Atlanta International Airport

Retrieved 2020/10/30 23:52 UTC (29 minutes ago):

KATL 302352Z 33008KT 10SM CLR 12/05 A3016 RMK AO2 SLP215 T01220050 10172 20122 53016

Aviation forecast (TAF) for Hartsfield Jackson Atlanta International Airport

Retrieved 2020-10-31 00:22 UTC (0 seconds ago):

TAF KATL 302320Z 3100/0106 34012KT P6SM SKC FM310500 03006KT P6SM SKC FM311900 09010KT P6SM SCT040 FM010200 09008KT P6SM OVC030 FM010400 09007KT P6SM OVC018